< < Back
Terminal Aerodrome Forecast


Current Version              Previous Versions:   1  2  3  4  5  6  7  8  9  

Terminal Aerodrome Forecast

298
FTUS42 KFFC 080333 AAB
TAFATL
TAF AMD
KATL 080333Z 0804/0906 28005KT P6SM SCT250
     FM081000 25004KT P6SM SCT035 BKN120
     FM081400 26008KT P6SM BKN025
     FM081800 27015G25KT P6SM SCT035 BKN050
      TEMPO 0818/0822 6SM -SHRA BKN035
     FM090000 30011KT P6SM OVC025 PROB30 0900/0906 6SM -SHSN BKN015=

Latest METAR

016
SAUS70 KWBC 080348
MTRATL
METAR KATL 080352Z 26004KT 10SM FEW250 06/M06 A2997 RMK AO2 SLP152
T00561056


USA.gov is the U.S. government's official web portal to all federal, state and local government web resources and services.